Redbird, Oklahoma
Current Conditions -  °F | °C
As of 7:53 AM on Friday 28 Nov 2014 (Local Time) from KMKO Reporting Station
Clear Clear  
Wind Chill: 30°   Ceiling: Unl
Heat Index: 37°   Visibility: 10mi
Dew Point: 30°   Wind: 10mph
Humidity: 76%   Direction: 160°SSE
Pressure: 30.2"   Gusts: NA
Location:  35.89°N, 95.59°W
Report Text: KMKO 281353Z AUTO 16009KT 10SM CLR 03/M01 A3020 RMK AO2 SLP229 T00281011
Loading
Personal Weather Stations






























Interactive Weather Map New forecast layout! Learn more

10-Day Weather Forecast

Advertisements
Track Severe Weather on mobile